createdAt,value
2018-09-28T00:01:02.926Z,85.40
2018-09-28T00:03:30.519Z,85.50
2018-09-28T00:05:58.087Z,85.70
2018-09-28T00:08:26.418Z,86.00
2018-09-28T00:10:54.061Z,85.90
2018-09-28T00:13:21.594Z,85.90
2018-09-28T00:15:49.150Z,86.00
2018-09-28T00:18:16.755Z,86.10
2018-09-28T00:20:44.315Z,86.30
2018-09-28T00:23:11.882Z,86.40
2018-09-28T00:25:39.463Z,86.40
2018-09-28T00:28:07.013Z,86.40
2018-09-28T00:30:34.572Z,86.30
2018-09-28T00:33:02.161Z,86.30
2018-09-28T00:35:29.711Z,85.50
2018-09-28T00:37:57.266Z,85.50
2018-09-28T00:40:24.871Z,85.50
2018-09-28T00:42:52.444Z,84.90
2018-09-28T00:45:19.998Z,84.30
2018-09-28T00:47:48.352Z,84.70
2018-09-28T00:50:15.899Z,84.70
2018-09-28T00:52:43.471Z,85.00
2018-09-28T00:55:11.054Z,85.70
2018-09-28T00:57:39.699Z,85.90
2018-09-28T01:00:07.308Z,85.80
2018-09-28T01:02:35.626Z,85.30
2018-09-28T01:05:03.170Z,85.30
2018-09-28T01:07:30.760Z,85.70
2018-09-28T01:09:58.317Z,86.10
2018-09-28T01:12:26.156Z,86.80
2018-09-28T01:14:53.712Z,87.00
2018-09-28T01:17:21.618Z,87.50
2018-09-28T01:19:49.235Z,88.00
2018-09-28T01:22:16.759Z,88.40
2018-09-28T01:24:44.360Z,88.70
2018-09-28T01:27:11.946Z,88.70
2018-09-28T01:29:39.463Z,88.50
2018-09-28T01:32:07.820Z,88.70
2018-09-28T01:34:35.376Z,88.70
2018-09-28T01:37:02.929Z,88.90
2018-09-28T01:39:30.519Z,89.30
2018-09-28T01:41:58.068Z,89.60
2018-09-28T01:44:25.686Z,89.80
2018-09-28T01:46:53.246Z,89.90
2018-09-28T01:49:20.796Z,90.10
2018-09-28T01:51:48.384Z,90.30
2018-09-28T01:54:15.940Z,90.30
2018-09-28T01:56:43.501Z,90.20
2018-09-28T01:59:11.662Z,90.20
2018-09-28T02:01:39.220Z,90.20
2018-09-28T02:04:06.775Z,90.10
2018-09-28T02:06:34.359Z,90.00
2018-09-28T02:09:01.908Z,90.00
2018-09-28T02:11:29.527Z,89.80
2018-09-28T02:13:57.292Z,89.70
2018-09-28T02:16:24.852Z,89.50
2018-09-28T02:18:52.433Z,89.30
2018-09-28T02:21:20.749Z,88.30
2018-09-28T02:23:48.296Z,88.30
2018-09-28T02:26:15.882Z,88.30
2018-09-28T02:28:43.442Z,88.20
2018-09-28T02:31:11.009Z,88.30
2018-09-28T02:33:38.587Z,88.50
2018-09-28T02:36:06.131Z,88.60
2018-09-28T02:38:33.725Z,89.20
2018-09-28T02:41:01.283Z,89.70
2018-09-28T02:43:28.848Z,90.40
2018-09-28T02:45:56.423Z,90.30
2018-09-28T02:48:23.974Z,90.50
2018-09-28T02:50:52.294Z,90.60
2018-09-28T02:53:19.884Z,90.60
2018-09-28T02:55:47.432Z,90.60
2018-09-28T02:58:14.990Z,90.80
2018-09-28T03:00:42.588Z,90.90
2018-09-28T03:03:10.149Z,91.10
2018-09-28T03:05:37.722Z,91.30
2018-09-28T03:08:06.120Z,91.50
2018-09-28T03:10:34.441Z,91.60
2018-09-28T03:13:01.993Z,91.50
2018-09-28T03:15:29.587Z,91.40
2018-09-28T03:17:57.135Z,91.30
2018-09-28T03:20:24.690Z,91.20
2018-09-28T03:22:52.283Z,91.30
2018-09-28T03:25:19.839Z,91.50
2018-09-28T03:27:47.407Z,91.60
2018-09-28T03:30:15.022Z,91.70
2018-09-28T03:32:42.576Z,92.10
2018-09-28T03:35:10.123Z,91.70
2018-09-28T03:37:38.123Z,91.70
2018-09-28T03:40:05.679Z,91.80
2018-09-28T03:42:33.239Z,91.80
2018-09-28T03:45:00.833Z,91.90
2018-09-28T03:47:28.402Z,91.90
2018-09-28T03:49:55.951Z,91.90
2018-09-28T03:52:25.002Z,92.20
2018-09-28T03:54:52.564Z,91.90
2018-09-28T03:57:20.134Z,91.50
2018-09-28T03:59:47.728Z,91.60
2018-09-28T04:02:15.292Z,91.60
2018-09-28T04:04:42.850Z,91.60
2018-09-28T04:07:10.445Z,92.20
2018-09-28T04:09:38.771Z,91.90
2018-09-28T04:12:06.338Z,91.90
2018-09-28T04:14:33.928Z,91.90
2018-09-28T04:17:01.490Z,92.00
2018-09-28T04:19:29.043Z,92.20
2018-09-28T04:21:57.566Z,92.20
2018-09-28T04:24:25.033Z,92.20
2018-09-28T04:26:52.592Z,92.30
2018-09-28T04:29:20.219Z,91.90
2018-09-28T04:31:47.837Z,91.70
2018-09-28T04:34:15.356Z,91.70
2018-09-28T04:36:43.788Z,91.90
2018-09-28T04:39:11.341Z,92.00
2018-09-28T04:41:38.894Z,92.10
2018-09-28T04:44:06.509Z,92.10
2018-09-28T04:46:34.058Z,92.10
2018-09-28T04:49:01.616Z,92.10
2018-09-28T04:51:29.921Z,92.10
2018-09-28T04:53:57.477Z,92.10
2018-09-28T04:56:25.795Z,92.60
2018-09-28T04:58:53.408Z,92.30
2018-09-28T05:01:20.966Z,92.30
2018-09-28T05:03:48.522Z,92.40
2018-09-28T05:06:16.628Z,92.40
2018-09-28T05:08:44.177Z,92.50
2018-09-28T05:11:11.741Z,92.60
2018-09-28T05:13:40.097Z,92.70
2018-09-28T05:16:07.643Z,92.70
2018-09-28T05:18:35.200Z,92.80
2018-09-28T05:21:02.846Z,93.00
2018-09-28T05:23:31.137Z,92.40
2018-09-28T05:25:58.696Z,92.40
2018-09-28T05:28:27.177Z,92.80
2018-09-28T05:30:54.728Z,92.70
2018-09-28T05:33:22.296Z,92.80
2018-09-28T05:35:49.891Z,93.00
2018-09-28T05:38:17.450Z,93.10
2018-09-28T05:40:45.014Z,93.20
2018-09-28T05:43:13.986Z,93.30
2018-09-28T05:45:41.557Z,93.40
2018-09-28T05:48:09.109Z,93.40
2018-09-28T05:50:36.715Z,93.40
2018-09-28T05:53:05.036Z,94.10
2018-09-28T05:55:32.593Z,94.10
2018-09-28T05:58:00.180Z,93.80
2018-09-28T06:00:33.457Z,93.80
2018-09-28T06:03:03.900Z,93.70
2018-09-28T06:05:32.278Z,93.70
2018-09-28T06:08:00.550Z,93.70
2018-09-28T06:10:28.635Z,93.60
2018-09-28T06:12:56.180Z,93.70
2018-09-28T06:15:23.739Z,93.80
2018-09-28T06:17:51.369Z,93.80
2018-09-28T06:20:19.668Z,93.60
2018-09-28T06:22:47.222Z,93.60
2018-09-28T06:25:14.836Z,93.40
2018-09-28T06:27:42.398Z,93.30
2018-09-28T06:30:10.289Z,93.30
2018-09-28T06:32:37.871Z,93.20
2018-09-28T06:35:05.433Z,93.30
2018-09-28T06:37:32.994Z,93.20
2018-09-28T06:40:00.623Z,93.30
2018-09-28T06:42:29.037Z,93.50
2018-09-28T06:44:56.523Z,93.50
2018-09-28T06:47:24.114Z,93.50
2018-09-28T06:49:51.722Z,93.50
2018-09-28T06:52:19.281Z,93.40
2018-09-28T06:54:46.840Z,93.40
2018-09-28T06:57:14.461Z,93.30
2018-09-28T06:59:42.076Z,93.30
2018-09-28T07:02:09.581Z,93.30
2018-09-28T07:04:37.815Z,93.30
2018-09-28T07:07:05.384Z,93.30
2018-09-28T07:09:33.017Z,93.30
2018-09-28T07:12:00.636Z,93.20
2018-09-28T07:14:28.141Z,93.40
2018-09-28T07:16:55.774Z,93.30
2018-09-28T07:19:23.321Z,93.20
2018-09-28T07:21:50.879Z,93.10
2018-09-28T07:24:18.544Z,93.10
2018-09-28T07:26:46.088Z,93.10
2018-09-28T07:29:13.648Z,93.20
2018-09-28T07:31:41.213Z,93.20
2018-09-28T07:34:08.854Z,93.40
2018-09-28T07:36:36.559Z,93.60
2018-09-28T07:39:03.972Z,93.90
2018-09-28T07:41:31.599Z,93.50
2018-09-28T07:43:59.914Z,93.40
2018-09-28T07:46:27.475Z,93.40
2018-09-28T07:48:55.091Z,93.50
2018-09-28T07:51:22.643Z,93.60
2018-09-28T07:53:50.196Z,93.50
2018-09-28T07:56:18.359Z,93.50
2018-09-28T07:58:45.928Z,94.00
2018-09-28T08:01:13.498Z,93.80
2018-09-28T08:03:41.554Z,93.40
2018-09-28T08:06:09.111Z,93.40
2018-09-28T08:08:36.681Z,93.10
2018-09-28T08:11:04.297Z,92.50
2018-09-28T08:13:31.865Z,92.60
2018-09-28T08:15:59.423Z,92.60
2018-09-28T08:18:27.840Z,92.50
2018-09-28T08:20:55.401Z,92.30
2018-09-28T08:23:23.026Z,92.20
2018-09-28T08:25:50.571Z,92.20
2018-09-28T08:28:18.912Z,92.20
2018-09-28T08:30:46.469Z,92.20
2018-09-28T08:33:14.066Z,92.10
2018-09-28T08:35:42.405Z,92.30
2018-09-28T08:38:10.986Z,91.90
2018-09-28T08:40:38.560Z,91.70
2018-09-28T08:43:06.129Z,91.60
2018-09-28T08:45:33.758Z,91.50
2018-09-28T08:48:01.331Z,91.40
2018-09-28T08:50:28.923Z,91.10
2018-09-28T08:52:56.535Z,91.00
2018-09-28T08:55:24.100Z,90.90
2018-09-28T08:57:51.671Z,90.70
2018-09-28T09:00:20.684Z,90.40
2018-09-28T09:02:48.247Z,90.00
2018-09-28T09:05:15.811Z,89.60
2018-09-28T09:07:43.398Z,89.20
2018-09-28T09:10:11.725Z,88.30
2018-09-28T09:12:39.353Z,88.20
2018-09-28T09:15:07.680Z,87.60
2018-09-28T09:17:35.241Z,87.60
2018-09-28T09:20:03.084Z,87.20
2018-09-28T09:22:30.653Z,86.50
2018-09-28T09:24:58.218Z,85.70
2018-09-28T09:27:26.243Z,85.20
2018-09-28T09:29:53.767Z,84.50
2018-09-28T09:32:21.334Z,84.00
2018-09-28T09:34:48.990Z,83.30
2018-09-28T09:37:16.571Z,82.30
2018-09-28T09:39:44.147Z,81.20
2018-09-28T09:42:12.531Z,79.00
2018-09-28T09:44:40.106Z,78.90
2018-09-28T09:47:08.458Z,77.30
2018-09-28T09:49:36.112Z,77.20
2018-09-28T09:52:03.710Z,76.80
2018-09-28T09:54:32.058Z,75.20
2018-09-28T09:56:59.676Z,75.20
2018-09-28T09:59:27.291Z,75.70
2018-09-28T10:01:54.861Z,73.40
2018-09-28T10:04:23.193Z,72.00
2018-09-28T10:06:50.769Z,71.90
2018-09-28T10:09:18.400Z,71.30
2018-09-28T10:11:45.965Z,70.50
2018-09-28T10:14:13.530Z,69.30
2018-09-28T10:16:41.185Z,68.80
2018-09-28T10:19:08.805Z,68.00
2018-09-28T10:21:36.340Z,67.50
2018-09-28T10:24:04.000Z,67.10
2018-09-28T10:26:31.568Z,66.90
2018-09-28T10:28:59.141Z,66.70
2018-09-28T10:31:26.771Z,66.40
2018-09-28T10:33:54.337Z,65.60
2018-09-28T10:36:21.904Z,64.80
2018-09-28T10:38:49.565Z,64.00
2018-09-28T10:41:17.212Z,63.50
2018-09-28T10:43:44.791Z,61.40
2018-09-28T10:46:12.363Z,60.80
2018-09-28T10:48:39.925Z,60.20
2018-09-28T10:51:07.604Z,59.10
2018-09-28T10:53:35.641Z,57.30
2018-09-28T10:56:03.210Z,57.20
2018-09-28T10:58:31.153Z,57.10
2018-09-28T11:00:58.623Z,56.70
2018-09-28T11:03:26.229Z,56.70
2018-09-28T11:05:54.378Z,56.60
2018-09-28T11:08:21.976Z,56.50
2018-09-28T11:10:49.958Z,55.50
2018-09-28T11:13:17.872Z,54.00
2018-09-28T11:15:45.484Z,51.30
2018-09-28T11:18:13.815Z,48.20
2018-09-28T11:20:41.466Z,48.20
2018-09-28T11:23:09.038Z,46.70
2018-09-28T11:25:36.606Z,46.20
2018-09-28T11:28:05.086Z,46.80
2018-09-28T11:30:32.669Z,47.70
2018-09-28T11:33:00.274Z,47.30
2018-09-28T11:35:27.926Z,47.40
2018-09-28T11:37:55.516Z,48.10
2018-09-28T11:40:23.085Z,48.70
2018-09-28T11:42:50.725Z,49.20
2018-09-28T11:45:18.353Z,48.90
2018-09-28T11:47:45.901Z,49.10
2018-09-28T11:50:14.371Z,49.30
2018-09-28T11:52:41.933Z,49.30
2018-09-28T11:55:09.497Z,48.70
2018-09-28T11:57:37.133Z,48.80
2018-09-28T12:00:05.457Z,48.30
2018-09-28T12:02:33.081Z,48.20
2018-09-28T12:05:00.697Z,48.30
2018-09-28T12:07:28.224Z,48.40
2018-09-28T12:09:55.846Z,48.50
2018-09-28T12:12:23.486Z,48.70
2018-09-28T12:14:51.404Z,48.00
2018-09-28T12:17:20.201Z,48.00
2018-09-28T12:19:47.774Z,48.20
2018-09-28T12:22:15.338Z,48.20
2018-09-28T12:24:42.976Z,48.00
2018-09-28T12:27:10.574Z,47.50
2018-09-28T12:29:38.078Z,47.80
2018-09-28T12:32:05.701Z,48.20
2018-09-28T12:34:34.035Z,50.40
2018-09-28T12:37:01.610Z,49.70
2018-09-28T12:39:29.319Z,50.40
2018-09-28T12:41:56.823Z,51.00
2018-09-28T12:44:24.471Z,50.80
2018-09-28T12:46:52.017Z,51.20
2018-09-28T12:49:19.590Z,52.20
2018-09-28T12:51:47.477Z,53.60
2018-09-28T12:56:42.710Z,55.30
2018-09-28T12:59:10.318Z,55.80
2018-09-28T13:01:38.674Z,57.10
2018-09-28T13:04:06.250Z,57.10
2018-09-28T13:06:34.671Z,58.10
2018-09-28T13:09:02.210Z,57.90
2018-09-28T13:11:29.795Z,58.40
2018-09-28T13:13:57.471Z,59.10
2018-09-28T13:16:25.040Z,59.50
2018-09-28T13:18:52.708Z,60.10
2018-09-28T13:21:21.393Z,61.40
2018-09-28T13:23:48.960Z,61.40
2018-09-28T13:26:16.614Z,62.00
2018-09-28T13:28:44.153Z,62.60
2018-09-28T13:31:11.736Z,63.30
2018-09-28T13:33:39.306Z,64.10
2018-09-28T13:36:06.993Z,64.40
2018-09-28T13:38:38.063Z,64.80
2018-09-28T13:41:05.541Z,65.20
2018-09-28T13:43:33.161Z,65.50
2018-09-28T13:46:01.537Z,65.80
2018-09-28T13:48:29.145Z,65.80
2018-09-28T13:50:56.700Z,66.30
2018-09-28T13:53:24.276Z,66.80
2018-09-28T13:55:52.078Z,67.20
2018-09-28T13:58:20.395Z,67.50
2018-09-28T14:00:47.980Z,67.80
2018-09-28T14:03:15.451Z,68.50
2018-09-28T14:05:43.110Z,68.60
2018-09-28T14:08:10.734Z,69.20
2018-09-28T14:10:38.263Z,69.20
2018-09-28T14:13:06.234Z,69.20
2018-09-28T14:15:33.798Z,69.30
2018-09-28T14:18:01.375Z,69.40
2018-09-28T14:20:29.456Z,69.70
2018-09-28T14:22:56.971Z,69.80
2018-09-28T14:25:24.530Z,70.30
2018-09-28T14:27:53.139Z,70.90
2018-09-28T14:30:20.720Z,71.10
2018-09-28T14:32:48.280Z,71.40
2018-09-28T14:35:16.422Z,71.80
2018-09-28T14:37:43.987Z,72.00
2018-09-28T14:40:11.566Z,71.90
2018-09-28T14:42:41.181Z,72.10
2018-09-28T14:45:08.720Z,72.10
2018-09-28T14:47:36.281Z,72.50
2018-09-28T14:50:04.753Z,72.60
2018-09-28T14:52:32.323Z,72.80
2018-09-28T14:54:59.899Z,72.40
2018-09-28T14:57:27.489Z,72.60
2018-09-28T14:59:55.050Z,73.10
2018-09-28T15:02:23.222Z,73.20
2018-09-28T15:04:52.550Z,73.60
2018-09-28T15:07:20.143Z,74.00
2018-09-28T15:09:47.802Z,75.20
2018-09-28T15:12:15.437Z,74.90
2018-09-28T15:14:42.956Z,75.20
2018-09-28T15:17:10.591Z,75.10
2018-09-28T15:19:38.175Z,75.30
2018-09-28T15:22:06.504Z,75.90
2018-09-28T15:24:34.135Z,75.80
2018-09-28T15:27:01.938Z,75.70
2018-09-28T15:29:29.558Z,75.80
2018-09-28T15:31:57.105Z,76.00
2018-09-28T15:34:24.665Z,76.30
2018-09-28T15:36:52.508Z,76.30
2018-09-28T15:39:20.107Z,76.30
2018-09-28T15:41:47.691Z,76.20
2018-09-28T15:44:15.772Z,76.30
2018-09-28T15:46:43.345Z,76.20
2018-09-28T15:49:10.910Z,76.40
2018-09-28T15:51:48.336Z,76.50
2018-09-28T15:54:42.423Z,76.50
2018-09-28T15:57:01.394Z,76.40
2018-09-28T15:59:30.130Z,75.80
2018-09-28T16:01:58.436Z,75.80
2018-09-28T16:04:27.065Z,75.90
2018-09-28T16:06:55.350Z,75.70
2018-09-28T16:09:23.108Z,75.70
2018-09-28T16:11:51.245Z,75.50
2018-09-28T16:14:19.006Z,75.50
2018-09-28T16:16:46.576Z,75.70
2018-09-28T16:19:14.930Z,75.70
2018-09-28T16:21:42.879Z,75.80
2018-09-28T16:24:11.182Z,76.70
2018-09-28T16:26:39.205Z,76.60
2018-09-28T16:29:07.418Z,76.70
2018-09-28T16:31:34.984Z,77.00
2018-09-28T16:34:03.562Z,77.20
2018-09-28T16:36:32.078Z,77.10
2018-09-28T16:39:00.004Z,77.00
2018-09-28T16:41:27.862Z,76.70
2018-09-28T16:43:55.576Z,76.70
2018-09-28T16:46:23.797Z,76.60
2018-09-28T16:48:52.539Z,76.70
2018-09-28T16:51:20.101Z,76.60
2018-09-28T16:53:47.655Z,76.10
2018-09-28T16:56:15.277Z,76.10
2018-09-28T16:58:42.838Z,75.70
2018-09-28T17:01:11.014Z,75.00
2018-09-28T17:03:39.597Z,74.70
2018-09-28T17:06:07.082Z,74.60
2018-09-28T17:08:34.643Z,74.40
2018-09-28T17:11:02.304Z,74.30
2018-09-28T17:13:30.266Z,73.90
2018-09-28T17:15:58.241Z,74.20
2018-09-28T17:18:25.841Z,73.40
2018-09-28T17:20:53.852Z,72.30
2018-09-28T17:23:21.738Z,71.80
2018-09-28T17:25:51.526Z,71.50
2018-09-28T17:28:19.107Z,70.70
2018-09-28T17:30:46.650Z,69.80
2018-09-28T17:33:14.314Z,70.00
2018-09-28T17:35:41.880Z,69.80
2018-09-28T17:38:09.440Z,69.10
2018-09-28T17:40:37.049Z,69.00
2018-09-28T17:43:05.926Z,68.90
2018-09-28T17:45:35.230Z,68.80
2018-09-28T17:48:03.393Z,68.90
2018-09-28T17:50:30.961Z,68.90
2018-09-28T17:52:58.927Z,68.80
2018-09-28T17:55:26.567Z,68.70
2018-09-28T17:57:54.155Z,68.80
2018-09-28T18:00:21.731Z,68.80
2018-09-28T18:02:49.349Z,68.90
2018-09-28T18:05:16.915Z,68.80
2018-09-28T18:07:45.376Z,68.30
2018-09-28T18:10:14.017Z,68.10
2018-09-28T18:12:41.585Z,68.40
2018-09-28T18:15:09.661Z,68.70
2018-09-28T18:17:38.346Z,68.90
2018-09-28T18:20:05.954Z,69.10
2018-09-28T18:22:33.515Z,69.40
2018-09-28T18:25:02.763Z,70.20
2018-09-28T18:27:30.375Z,69.50
2018-09-28T18:29:57.944Z,69.40
2018-09-28T18:32:26.735Z,69.70
2018-09-28T18:34:54.787Z,70.00
2018-09-28T18:37:23.149Z,70.70
2018-09-28T18:39:50.761Z,70.60
2018-09-28T18:42:18.863Z,71.00
2018-09-28T18:44:47.140Z,71.70
2018-09-28T18:47:14.960Z,71.60
2018-09-28T18:49:42.522Z,71.90
2018-09-28T18:52:10.549Z,72.30
2018-09-28T18:54:38.150Z,72.60
2018-09-28T18:57:05.732Z,72.90
2018-09-28T18:59:33.304Z,73.10
2018-09-28T19:02:00.921Z,73.40
2018-09-28T19:04:28.488Z,73.70
2018-09-28T19:06:57.733Z,74.00
2018-09-28T19:09:26.797Z,74.30
2018-09-28T19:11:54.349Z,74.50
2018-09-28T19:14:21.916Z,74.70
2018-09-28T19:16:49.532Z,74.90
2018-09-28T19:19:17.553Z,74.90
2018-09-28T19:21:45.116Z,75.10
2018-09-28T19:24:12.775Z,75.40
2018-09-28T19:26:40.328Z,75.30
2018-09-28T19:29:07.894Z,76.00
2018-09-28T19:31:35.492Z,75.30
2018-09-28T19:34:03.053Z,75.40
2018-09-28T19:36:31.336Z,75.40
2018-09-28T19:38:58.917Z,75.50
2018-09-28T19:41:26.489Z,75.40
2018-09-28T19:43:56.317Z,75.40
2018-09-28T19:46:23.882Z,75.40
2018-09-28T19:48:52.223Z,75.40
2018-09-28T19:51:20.066Z,75.40
2018-09-28T19:53:47.637Z,75.50
2018-09-28T19:56:15.197Z,75.50
2018-09-28T19:58:42.841Z,75.60
2018-09-28T20:01:11.143Z,75.80
2018-09-28T20:03:38.706Z,75.70
2018-09-28T20:06:06.558Z,75.80
2018-09-28T20:08:34.113Z,76.10
2018-09-28T20:11:02.209Z,76.20
2018-09-28T20:13:30.259Z,76.20
2018-09-28T20:15:58.152Z,76.30
2018-09-28T20:18:26.313Z,76.60
2018-09-28T20:20:53.883Z,76.80
2018-09-28T20:23:21.453Z,76.90
2018-09-28T20:25:49.107Z,77.20
2018-09-28T20:28:16.938Z,77.30
2018-09-28T20:30:44.491Z,77.90
2018-09-28T20:33:12.106Z,77.30
2018-09-28T20:35:39.651Z,77.10
2018-09-28T20:38:07.290Z,77.00
2018-09-28T20:40:34.861Z,77.10
2018-09-28T20:43:02.424Z,77.40
2018-09-28T20:45:30.067Z,78.00
2018-09-28T20:47:57.632Z,78.30
2018-09-28T20:50:25.690Z,78.50
2018-09-28T20:52:54.666Z,79.00
2018-09-28T20:55:23.015Z,79.10
2018-09-28T20:57:50.582Z,79.00
2018-09-28T21:00:18.495Z,79.20
2018-09-28T21:02:46.760Z,79.80
2018-09-28T21:05:14.388Z,78.90
2018-09-28T21:07:41.956Z,78.80
2018-09-28T21:10:09.539Z,78.80
2018-09-28T21:12:37.917Z,79.10
2018-09-28T21:15:05.489Z,79.00
2018-09-28T21:17:33.060Z,78.70
2018-09-28T21:20:01.852Z,79.00
2018-09-28T21:22:29.417Z,78.80
2018-09-28T21:24:56.986Z,79.30
2018-09-28T21:27:24.577Z,79.80
2018-09-28T21:29:52.140Z,80.50
2018-09-28T21:32:20.112Z,80.70
2018-09-28T21:34:47.722Z,81.00
2018-09-28T21:37:16.063Z,80.80
2018-09-28T21:39:44.325Z,80.80
2018-09-28T21:42:11.892Z,80.70
2018-09-28T21:44:39.468Z,80.50
2018-09-28T21:47:07.731Z,80.00
2018-09-28T21:49:35.316Z,80.20
2018-09-28T21:52:02.899Z,80.60
2018-09-28T21:54:30.506Z,80.00
2018-09-28T21:56:58.073Z,80.30
2018-09-28T21:59:26.660Z,81.30
2018-09-28T22:01:54.220Z,82.00
2018-09-28T22:04:21.789Z,82.80
2018-09-28T22:06:50.234Z,83.20
2018-09-28T22:09:17.794Z,83.70
2018-09-28T22:11:45.364Z,83.90
2018-09-28T22:14:13.448Z,83.70
2018-09-28T22:16:41.419Z,83.40
2018-09-28T22:19:09.603Z,83.30
2018-09-28T22:21:37.173Z,83.20
2018-09-28T22:24:04.739Z,83.20
2018-09-28T22:26:32.331Z,83.30
2018-09-28T22:28:59.934Z,83.50
2018-09-28T22:31:28.019Z,83.50
2018-09-28T22:33:55.883Z,83.50
2018-09-28T22:36:23.469Z,83.80
2018-09-28T22:38:51.045Z,84.50
2018-09-28T22:41:19.499Z,85.60
2018-09-28T22:43:47.172Z,85.60
2018-09-28T22:46:14.677Z,85.70
2018-09-28T22:48:42.337Z,85.40
2018-09-28T22:51:09.938Z,85.20
2018-09-28T22:53:37.553Z,85.00
2018-09-28T22:56:05.197Z,84.90
2018-09-28T22:58:32.761Z,85.50
2018-09-28T23:01:01.095Z,88.10
2018-09-28T23:03:28.684Z,87.40
2018-09-28T23:05:56.249Z,88.00
2018-09-28T23:08:24.449Z,88.30
2018-09-28T23:10:52.017Z,88.90
2018-09-28T23:13:19.585Z,88.00
2018-09-28T23:15:47.223Z,87.90
2018-09-28T23:18:15.549Z,88.00
2018-09-28T23:20:43.597Z,87.30
2018-09-28T23:23:11.154Z,86.10
2018-09-28T23:25:38.733Z,85.70
2018-09-28T23:28:06.320Z,85.60
2018-09-28T23:30:33.880Z,85.50
2018-09-28T23:33:02.072Z,85.80
2018-09-28T23:35:31.988Z,85.80
2018-09-28T23:37:59.550Z,85.80
2018-09-28T23:40:27.139Z,86.10
2018-09-28T23:42:56.233Z,87.40
2018-09-28T23:45:24.601Z,87.80
2018-09-28T23:47:52.173Z,87.80
2018-09-28T23:50:20.495Z,89.00
2018-09-28T23:52:48.108Z,89.00
2018-09-28T23:55:15.655Z,89.50
2018-09-28T23:57:43.285Z,90.00
